sensor_id;sensor_type;location;lat;lon;timestamp;pressure;altitude;pressure_sealevel;temperature
57468;BMP280;43311;51.196;7.518;2023-07-31T00:02:12;96571.63;;;14.82
57468;BMP280;43311;51.196;7.518;2023-07-31T00:04:40;96571.06;;;14.87
57468;BMP280;43311;51.196;7.518;2023-07-31T00:07:06;96567.97;;;14.88
57468;BMP280;43311;51.196;7.518;2023-07-31T00:09:32;96554.78;;;14.88
57468;BMP280;43311;51.196;7.518;2023-07-31T00:11:58;96557.09;;;14.86
57468;BMP280;43311;51.196;7.518;2023-07-31T00:14:23;96556.69;;;14.88
57468;BMP280;43311;51.196;7.518;2023-07-31T00:16:48;96548.34;;;14.89
57468;BMP280;43311;51.196;7.518;2023-07-31T00:19:14;96539.81;;;14.85
57468;BMP280;43311;51.196;7.518;2023-07-31T00:21:39;96552.44;;;14.90
57468;BMP280;43311;51.196;7.518;2023-07-31T00:24:05;96545.09;;;14.85
57468;BMP280;43311;51.196;7.518;2023-07-31T00:26:30;96550.38;;;14.85
57468;BMP280;43311;51.196;7.518;2023-07-31T00:28:57;96548.59;;;14.82
57468;BMP280;43311;51.196;7.518;2023-07-31T00:31:23;96542.72;;;14.78
57468;BMP280;43311;51.196;7.518;2023-07-31T00:33:48;96538.59;;;14.77
57468;BMP280;43311;51.196;7.518;2023-07-31T00:36:13;96555.66;;;14.85
57468;BMP280;43311;51.196;7.518;2023-07-31T00:38:39;96538.34;;;14.84
57468;BMP280;43311;51.196;7.518;2023-07-31T00:41:05;96534.06;;;14.78
57468;BMP280;43311;51.196;7.518;2023-07-31T00:43:30;96544.22;;;14.88
57468;BMP280;43311;51.196;7.518;2023-07-31T00:45:56;96531.53;;;14.74
57468;BMP280;43311;51.196;7.518;2023-07-31T00:48:21;96542.16;;;14.83
57468;BMP280;43311;51.196;7.518;2023-07-31T00:50:47;96548.03;;;14.87
57468;BMP280;43311;51.196;7.518;2023-07-31T00:53:14;96553.78;;;14.95
57468;BMP280;43311;51.196;7.518;2023-07-31T00:55:40;96552.44;;;14.90
57468;BMP280;43311;51.196;7.518;2023-07-31T00:58:05;96553.31;;;14.87
57468;BMP280;43311;51.196;7.518;2023-07-31T01:00:30;96547.13;;;14.81
57468;BMP280;43311;51.196;7.518;2023-07-31T01:02:56;96549.19;;;14.86
57468;BMP280;43311;51.196;7.518;2023-07-31T01:13:58;96541.56;;;14.79
57468;BMP280;43311;51.196;7.518;2023-07-31T01:16:25;96550.63;;;14.78
57468;BMP280;43311;51.196;7.518;2023-07-31T01:18:51;96543.16;;;14.77
57468;BMP280;43311;51.196;7.518;2023-07-31T01:21:44;96549.03;;;14.81
57468;BMP280;43311;51.196;7.518;2023-07-31T01:24:22;96527.59;;;14.79
57468;BMP280;43311;51.196;7.518;2023-07-31T01:26:58;96540.09;;;14.78
57468;BMP280;43311;51.196;7.518;2023-07-31T01:29:47;96537.25;;;14.73
57468;BMP280;43311;51.196;7.518;2023-07-31T01:32:16;96533.91;;;14.81
57468;BMP280;43311;51.196;7.518;2023-07-31T01:34:43;96537.44;;;14.78
57468;BMP280;43311;51.196;7.518;2023-07-31T01:37:09;96534.22;;;14.83
57468;BMP280;43311;51.196;7.518;2023-07-31T01:39:34;96533.91;;;14.81
57468;BMP280;43311;51.196;7.518;2023-07-31T01:42:00;96529.97;;;14.77
57468;BMP280;43311;51.196;7.518;2023-07-31T01:44:26;96532.72;;;14.73
57468;BMP280;43311;51.196;7.518;2023-07-31T01:46:51;96525.41;;;14.77
57468;BMP280;43311;51.196;7.518;2023-07-31T01:49:16;96528.63;;;14.81
57468;BMP280;43311;51.196;7.518;2023-07-31T01:51:42;96520.72;;;14.81
57468;BMP280;43311;51.196;7.518;2023-07-31T01:54:07;96543.00;;;14.80
57468;BMP280;43311;51.196;7.518;2023-07-31T01:56:33;96539.63;;;14.80
57468;BMP280;43311;51.196;7.518;2023-07-31T01:58:58;96534.19;;;14.74
57468;BMP280;43311;51.196;7.518;2023-07-31T02:01:23;96535.38;;;14.73
57468;BMP280;43311;51.196;7.518;2023-07-31T02:03:49;96531.00;;;14.79
57468;BMP280;43311;51.196;7.518;2023-07-31T02:06:15;96521.28;;;14.76
57468;BMP280;43311;51.196;7.518;2023-07-31T02:08:40;96516.91;;;14.73
57468;BMP280;43311;51.196;7.518;2023-07-31T02:11:06;96526.13;;;14.78
57468;BMP280;43311;51.196;7.518;2023-07-31T02:13:31;96523.78;;;14.71
57468;BMP280;43311;51.196;7.518;2023-07-31T02:15:56;96522.31;;;14.79
57468;BMP280;43311;51.196;7.518;2023-07-31T02:18:22;96521.41;;;14.73
57468;BMP280;43311;51.196;7.518;2023-07-31T02:20:52;96526.69;;;14.73
57468;BMP280;43311;51.196;7.518;2023-07-31T02:23:18;96518.97;;;14.78
57468;BMP280;43311;51.196;7.518;2023-07-31T02:25:44;96525.72;;;14.79
57468;BMP280;43311;51.196;7.518;2023-07-31T02:28:09;96522.59;;;14.72
57468;BMP280;43311;51.196;7.518;2023-07-31T02:30:35;96517.31;;;14.72
57468;BMP280;43311;51.196;7.518;2023-07-31T02:33:00;96511.19;;;14.75
57468;BMP280;43311;51.196;7.518;2023-07-31T02:35:25;96514.81;;;14.68
57468;BMP280;43311;51.196;7.518;2023-07-31T02:37:51;96524.03;;;14.64
57468;BMP280;43311;51.196;7.518;2023-07-31T02:40:18;96523.91;;;14.67
57468;BMP280;43311;51.196;7.518;2023-07-31T02:42:43;96518.44;;;14.62
57468;BMP280;43311;51.196;7.518;2023-07-31T02:45:10;96512.47;;;14.70
57468;BMP280;43311;51.196;7.518;2023-07-31T02:47:36;96520.38;;;14.70
57468;BMP280;43311;51.196;7.518;2023-07-31T02:50:02;96496.59;;;14.61
57468;BMP280;43311;51.196;7.518;2023-07-31T02:52:28;96505.72;;;14.69
57468;BMP280;43311;51.196;7.518;2023-07-31T02:54:53;96491.50;;;14.67
57468;BMP280;43311;51.196;7.518;2023-07-31T02:57:19;96507.94;;;14.71
57468;BMP280;43311;51.196;7.518;2023-07-31T02:59:44;96499.84;;;14.65
57468;BMP280;43311;51.196;7.518;2023-07-31T03:02:09;96486.22;;;14.67
57468;BMP280;43311;51.196;7.518;2023-07-31T03:04:35;96483.75;;;14.72
57468;BMP280;43311;51.196;7.518;2023-07-31T03:07:01;96496.81;;;14.76
57468;BMP280;43311;51.196;7.518;2023-07-31T03:09:26;96487.56;;;14.71
57468;BMP280;43311;51.196;7.518;2023-07-31T03:11:51;96495.22;;;14.78
57468;BMP280;43311;51.196;7.518;2023-07-31T03:14:17;96480.84;;;14.79
57468;BMP280;43311;51.196;7.518;2023-07-31T03:16:42;96491.69;;;14.81
57468;BMP280;43311;51.196;7.518;2023-07-31T03:19:07;96490.06;;;14.84
57468;BMP280;43311;51.196;7.518;2023-07-31T03:21:33;96494.38;;;14.90
57468;BMP280;43311;51.196;7.518;2023-07-31T03:23:58;96493.75;;;14.86
57468;BMP280;43311;51.196;7.518;2023-07-31T03:26:24;96485.25;;;14.91
57468;BMP280;43311;51.196;7.518;2023-07-31T03:28:49;96492.00;;;14.92
57468;BMP280;43311;51.196;7.518;2023-07-31T03:31:14;96487.47;;;14.93
57468;BMP280;43311;51.196;7.518;2023-07-31T03:33:40;96478.66;;;14.87
57468;BMP280;43311;51.196;7.518;2023-07-31T03:36:05;96482.59;;;14.82
57468;BMP280;43311;51.196;7.518;2023-07-31T03:38:31;96466.63;;;14.86
57468;BMP280;43311;51.196;7.518;2023-07-31T03:40:56;96479.72;;;14.98
57468;BMP280;43311;51.196;7.518;2023-07-31T03:43:24;96472.06;;;14.91
57468;BMP280;43311;51.196;7.518;2023-07-31T03:45:50;96469.72;;;14.93
57468;BMP280;43311;51.196;7.518;2023-07-31T03:48:15;96470.91;;;14.92
57468;BMP280;43311;51.196;7.518;2023-07-31T03:50:41;96467.09;;;14.93
57468;BMP280;43311;51.196;7.518;2023-07-31T03:53:07;96472.22;;;14.88
57468;BMP280;43311;51.196;7.518;2023-07-31T03:55:32;96461.34;;;14.86
57468;BMP280;43311;51.196;7.518;2023-07-31T03:57:57;96463.28;;;14.94
57468;BMP280;43311;51.196;7.518;2023-07-31T04:00:23;96468.88;;;15.05
57468;BMP280;43311;51.196;7.518;2023-07-31T04:02:48;96460.38;;;15.01
57468;BMP280;43311;51.196;7.518;2023-07-31T04:05:14;96458.13;;;14.91
57468;BMP280;43311;51.196;7.518;2023-07-31T04:07:39;96467.41;;;15.04
57468;BMP280;43311;51.196;7.518;2023-07-31T04:10:04;96464.31;;;15.05
57468;BMP280;43311;51.196;7.518;2023-07-31T04:12:30;96465.78;;;15.06
57468;BMP280;43311;51.196;7.518;2023-07-31T04:14:55;96463.31;;;15.12
57468;BMP280;43311;51.196;7.518;2023-07-31T04:17:20;96461.41;;;15.03
57468;BMP280;43311;51.196;7.518;2023-07-31T04:19:46;96460.63;;;14.94
57468;BMP280;43311;51.196;7.518;2023-07-31T04:22:11;96463.16;;;14.98
57468;BMP280;43311;51.196;7.518;2023-07-31T04:24:36;96464.91;;;15.01
57468;BMP280;43311;51.196;7.518;2023-07-31T04:27:02;96469.16;;;14.98
57468;BMP280;43311;51.196;7.518;2023-07-31T04:29:27;96474.44;;;14.98
57468;BMP280;43311;51.196;7.518;2023-07-31T04:31:53;96466.81;;;15.00
57468;BMP280;43311;51.196;7.518;2023-07-31T04:34:18;96470.31;;;14.97
57468;BMP280;43311;51.196;7.518;2023-07-31T04:36:43;96459.16;;;14.93
57468;BMP280;43311;51.196;7.518;2023-07-31T04:39:09;96480.31;;;15.02
57468;BMP280;43311;51.196;7.518;2023-07-31T04:41:34;96469.16;;;14.98
57468;BMP280;43311;51.196;7.518;2023-07-31T04:44:00;96467.66;;;14.97
57468;BMP280;43311;51.196;7.518;2023-07-31T04:46:25;96465.19;;;14.94
57468;BMP280;43311;51.196;7.518;2023-07-31T04:48:50;96455.22;;;14.98
57468;BMP280;43311;51.196;7.518;2023-07-31T04:51:16;96455.66;;;14.96
57468;BMP280;43311;51.196;7.518;2023-07-31T04:53:41;96457.72;;;15.01
57468;BMP280;43311;51.196;7.518;2023-07-31T04:56:06;96452.44;;;15.01
57468;BMP280;43311;51.196;7.518;2023-07-31T04:58:32;96449.50;;;15.08
57468;BMP280;43311;51.196;7.518;2023-07-31T05:00:57;96445.69;;;15.00
57468;BMP280;43311;51.196;7.518;2023-07-31T05:03:22;96448.78;;;14.99
57468;BMP280;43311;51.196;7.518;2023-07-31T05:05:48;96448.03;;;14.98
57468;BMP280;43311;51.196;7.518;2023-07-31T05:08:13;96434.25;;;14.94
57468;BMP280;43311;51.196;7.518;2023-07-31T05:10:39;96439.06;;;14.96
57468;BMP280;43311;51.196;7.518;2023-07-31T05:13:04;96427.66;;;14.99
57468;BMP280;43311;51.196;7.518;2023-07-31T05:15:30;96434.53;;;14.96
57468;BMP280;43311;51.196;7.518;2023-07-31T05:17:55;96446.56;;;14.97
57468;BMP280;43311;51.196;7.518;2023-07-31T05:20:21;96434.81;;;14.98
57468;BMP280;43311;51.196;7.518;2023-07-31T05:22:46;96438.22;;;14.99
57468;BMP280;43311;51.196;7.518;2023-07-31T05:25:12;96432.19;;;14.98
57468;BMP280;43311;51.196;7.518;2023-07-31T05:27:37;96426.91;;;14.98
57468;BMP280;43311;51.196;7.518;2023-07-31T05:30:03;96427.34;;;15.05
57468;BMP280;43311;51.196;7.518;2023-07-31T05:32:28;96411.97;;;15.13
57468;BMP280;43311;51.196;7.518;2023-07-31T05:34:54;96418.88;;;15.10
57468;BMP280;43311;51.196;7.518;2023-07-31T05:37:19;96418.16;;;15.19
57468;BMP280;43311;51.196;7.518;2023-07-31T05:39:45;96419.59;;;15.20
57468;BMP280;43311;51.196;7.518;2023-07-31T05:42:10;96415.50;;;15.19
57468;BMP280;43311;51.196;7.518;2023-07-31T05:44:36;96419.59;;;15.20
57468;BMP280;43311;51.196;7.518;2023-07-31T05:47:01;96416.06;;;15.14
57468;BMP280;43311;51.196;7.518;2023-07-31T05:49:26;96415.19;;;15.17
57468;BMP280;43311;51.196;7.518;2023-07-31T05:51:52;96401.09;;;15.20
57468;BMP280;43311;51.196;7.518;2023-07-31T05:54:17;96409.34;;;15.22
57468;BMP280;43311;51.196;7.518;2023-07-31T05:56:43;96402.31;;;15.28
57468;BMP280;43311;51.196;7.518;2023-07-31T05:59:09;96397.63;;;15.32
57468;BMP280;43311;51.196;7.518;2023-07-31T06:01:35;96396.75;;;15.35
57468;BMP280;43311;51.196;7.518;2023-07-31T06:04:01;96391.91;;;15.42
57468;BMP280;43311;51.196;7.518;2023-07-31T06:06:27;96375.16;;;15.45
57468;BMP280;43311;51.196;7.518;2023-07-31T06:08:53;96377.50;;;15.43
57468;BMP280;43311;51.196;7.518;2023-07-31T06:11:20;96369.44;;;15.38
57468;BMP280;43311;51.196;7.518;2023-07-31T06:13:45;96369.72;;;15.40
57468;BMP280;43311;51.196;7.518;2023-07-31T06:16:12;96367.97;;;15.46
57468;BMP280;43311;51.196;7.518;2023-07-31T06:18:37;96383.25;;;15.42
57468;BMP280;43311;51.196;7.518;2023-07-31T06:21:02;96383.66;;;15.40
57468;BMP280;43311;51.196;7.518;2023-07-31T06:23:28;96372.09;;;15.47
57468;BMP280;43311;51.196;7.518;2023-07-31T06:25:53;96378.25;;;15.53
57468;BMP280;43311;51.196;7.518;2023-07-31T06:28:18;96366.78;;;15.56
57468;BMP280;43311;51.196;7.518;2023-07-31T06:30:44;96375.31;;;15.42
57468;BMP280;43311;51.196;7.518;2023-07-31T06:33:10;96364.28;;;15.34
57468;BMP280;43311;51.196;7.518;2023-07-31T06:35:35;96370.03;;;15.42
57468;BMP280;43311;51.196;7.518;2023-07-31T06:38:01;96374.13;;;15.43
57468;BMP280;43311;51.196;7.518;2023-07-31T06:40:29;96369.59;;;15.34
57468;BMP280;43311;51.196;7.518;2023-07-31T06:42:55;96374.13;;;15.34
57468;BMP280;43311;51.196;7.518;2023-07-31T06:45:21;96390.28;;;15.36
57468;BMP280;43311;51.196;7.518;2023-07-31T06:47:47;96373.84;;;15.23
57468;BMP280;43311;51.196;7.518;2023-07-31T06:50:19;96371.47;;;15.16
57468;BMP280;43311;51.196;7.518;2023-07-31T06:52:45;96362.97;;;15.12
57468;BMP280;43311;51.196;7.518;2023-07-31T06:55:17;96354.47;;;15.17
57468;BMP280;43311;51.196;7.518;2023-07-31T06:57:47;96362.97;;;15.21
57468;BMP280;43311;51.196;7.518;2023-07-31T07:00:13;96360.94;;;15.25
57468;BMP280;43311;51.196;7.518;2023-07-31T07:02:39;96362.84;;;15.33
57468;BMP280;43311;51.196;7.518;2023-07-31T07:05:06;96364.75;;;15.24
57468;BMP280;43311;51.196;7.518;2023-07-31T07:07:32;96364.16;;;15.29
57468;BMP280;43311;51.196;7.518;2023-07-31T07:09:57;96357.41;;;15.37
57468;BMP280;43311;51.196;7.518;2023-07-31T07:12:25;96360.91;;;15.43
57468;BMP280;43311;51.196;7.518;2023-07-31T07:14:51;96352.13;;;15.46
57468;BMP280;43311;51.196;7.518;2023-07-31T07:17:19;96350.81;;;15.50
57468;BMP280;43311;51.196;7.518;2023-07-31T07:19:44;96349.31;;;15.49
57468;BMP280;43311;51.196;7.518;2023-07-31T07:22:12;96340.66;;;15.49
57468;BMP280;43311;51.196;7.518;2023-07-31T07:24:38;96339.75;;;15.61
57468;BMP280;43311;51.196;7.518;2023-07-31T07:27:04;96355.22;;;15.94
57468;BMP280;43311;51.196;7.518;2023-07-31T07:29:29;96355.69;;;15.93
57468;BMP280;43311;51.196;7.518;2023-07-31T07:31:55;96352.13;;;15.96
57468;BMP280;43311;51.196;7.518;2023-07-31T07:34:22;96364.59;;;16.04
57468;BMP280;43311;51.196;7.518;2023-07-31T07:36:48;96354.63;;;15.99
57468;BMP280;43311;51.196;7.518;2023-07-31T07:39:14;96360.81;;;15.87
57468;BMP280;43311;51.196;7.518;2023-07-31T07:41:39;96360.41;;;15.80
57468;BMP280;43311;51.196;7.518;2023-07-31T07:44:04;96356.03;;;15.77
57468;BMP280;43311;51.196;7.518;2023-07-31T07:46:30;96355.28;;;15.76
57468;BMP280;43311;51.196;7.518;2023-07-31T07:48:55;96353.53;;;15.73
57468;BMP280;43311;51.196;7.518;2023-07-31T07:51:20;96367.47;;;15.83
57468;BMP280;43311;51.196;7.518;2023-07-31T07:53:46;96375.81;;;15.81
57468;BMP280;43311;51.196;7.518;2023-07-31T07:56:11;96373.34;;;15.78
57468;BMP280;43311;51.196;7.518;2023-07-31T07:58:36;96365.56;;;15.74
57468;BMP280;43311;51.196;7.518;2023-07-31T08:01:02;96364.09;;;15.73
57468;BMP280;43311;51.196;7.518;2023-07-31T08:03:27;96347.97;;;15.63
57468;BMP280;43311;51.196;7.518;2023-07-31T08:05:58;96355.63;;;15.52
57468;BMP280;43311;51.196;7.518;2023-07-31T08:08:23;96344.03;;;15.49
57468;BMP280;43311;51.196;7.518;2023-07-31T08:10:48;96355.59;;;15.61
57468;BMP280;43311;51.196;7.518;2023-07-31T08:13:14;96341.19;;;15.71
57468;BMP280;43311;51.196;7.518;2023-07-31T08:15:41;96348.81;;;15.77
57468;BMP280;43311;51.196;7.518;2023-07-31T08:18:07;96335.78;;;15.65
57468;BMP280;43311;51.196;7.518;2023-07-31T08:20:32;96328.56;;;15.74
57468;BMP280;43311;51.196;7.518;2023-07-31T08:22:58;96335.59;;;15.86
57468;BMP280;43311;51.196;7.518;2023-07-31T08:25:24;96335.84;;;15.88
57468;BMP280;43311;51.196;7.518;2023-07-31T08:27:50;96318.09;;;15.89
57468;BMP280;43311;51.196;7.518;2023-07-31T08:30:19;96318.69;;;15.84
57468;BMP280;43311;51.196;7.518;2023-07-31T08:32:46;96325.00;;;15.86
57468;BMP280;43311;51.196;7.518;2023-07-31T08:35:12;96339.81;;;15.93
57468;BMP280;43311;51.196;7.518;2023-07-31T08:37:38;96332.19;;;15.95
57468;BMP280;43311;51.196;7.518;2023-07-31T08:40:05;96329.47;;;16.04
57468;BMP280;43311;51.196;7.518;2023-07-31T08:42:31;96329.53;;;15.95
57468;BMP280;43311;51.196;7.518;2023-07-31T08:44:58;96314.69;;;15.88
57468;BMP280;43311;51.196;7.518;2023-07-31T08:47:26;96316.63;;;15.88
57468;BMP280;43311;51.196;7.518;2023-07-31T08:49:52;96327.31;;;15.93
57468;BMP280;43311;51.196;7.518;2023-07-31T08:52:18;96325.56;;;15.90
57468;BMP280;43311;51.196;7.518;2023-07-31T08:54:44;96325.31;;;15.79
57468;BMP280;43311;51.196;7.518;2023-07-31T08:57:09;96336.91;;;15.73
57468;BMP280;43311;51.196;7.518;2023-07-31T08:59:36;96333.31;;;15.53
57468;BMP280;43311;51.196;7.518;2023-07-31T09:02:05;96335.22;;;15.52
57468;BMP280;43311;51.196;7.518;2023-07-31T09:04:33;96351.06;;;15.52
57468;BMP280;43311;51.196;7.518;2023-07-31T09:07:01;96346.22;;;15.51
57468;BMP280;43311;51.196;7.518;2023-07-31T09:09:28;96338.34;;;15.42
57468;BMP280;43311;51.196;7.518;2023-07-31T09:11:54;96340.66;;;15.31
57468;BMP280;43311;51.196;7.518;2023-07-31T09:14:21;96344.22;;;15.28
57468;BMP280;43311;51.196;7.518;2023-07-31T09:16:57;96331.31;;;15.30
57468;BMP280;43311;51.196;7.518;2023-07-31T09:19:33;96326.28;;;15.41
57468;BMP280;43311;51.196;7.518;2023-07-31T09:21:59;96326.88;;;15.45
57468;BMP280;43311;51.196;7.518;2023-07-31T09:24:29;96330.81;;;15.40
57468;BMP280;43311;51.196;7.518;2023-07-31T09:26:56;96319.69;;;15.36
57468;BMP280;43311;51.196;7.518;2023-07-31T09:29:22;96326.88;;;15.45
57468;BMP280;43311;51.196;7.518;2023-07-31T09:31:48;96316.16;;;15.30
57468;BMP280;43311;51.196;7.518;2023-07-31T09:34:14;96312.47;;;15.46
57468;BMP280;43311;51.196;7.518;2023-07-31T09:36:50;96308.47;;;15.59
57468;BMP280;43311;51.196;7.518;2023-07-31T09:39:16;96316.47;;;15.82
57468;BMP280;43311;51.196;7.518;2023-07-31T09:41:43;96312.31;;;15.99
57468;BMP280;43311;51.196;7.518;2023-07-31T09:44:09;96306.38;;;16.13
57468;BMP280;43311;51.196;7.518;2023-07-31T09:46:35;96311.38;;;16.11
57468;BMP280;43311;51.196;7.518;2023-07-31T09:49:09;96308.31;;;16.04
57468;BMP280;43311;51.196;7.518;2023-07-31T09:51:40;96304.25;;;15.94
57468;BMP280;43311;51.196;7.518;2023-07-31T09:54:13;96304.97;;;15.94
57468;BMP280;43311;51.196;7.518;2023-07-31T09:56:42;96291.81;;;15.85
57468;BMP280;43311;51.196;7.518;2023-07-31T09:59:11;96290.97;;;15.71
57468;BMP280;43311;51.196;7.518;2023-07-31T10:01:36;96301.63;;;15.85
57468;BMP280;43311;51.196;7.518;2023-07-31T10:04:03;96293.28;;;15.86
57468;BMP280;43311;51.196;7.518;2023-07-31T10:06:29;96298.66;;;16.01
57468;BMP280;43311;51.196;7.518;2023-07-31T10:08:56;96281.81;;;16.13
57468;BMP280;43311;51.196;7.518;2023-07-31T10:11:22;96295.81;;;16.13
57468;BMP280;43311;51.196;7.518;2023-07-31T10:13:50;96291.91;;;16.32
57468;BMP280;43311;51.196;7.518;2023-07-31T10:16:17;96296.97;;;16.12
57468;BMP280;43311;51.196;7.518;2023-07-31T10:18:44;96299.63;;;16.12
57468;BMP280;43311;51.196;7.518;2023-07-31T10:21:11;96277.53;;;15.92
57468;BMP280;43311;51.196;7.518;2023-07-31T10:23:36;96298.31;;;16.08
57468;BMP280;43311;51.196;7.518;2023-07-31T10:26:02;96293.44;;;16.15
57468;BMP280;43311;51.196;7.518;2023-07-31T10:28:29;96292.31;;;16.07
57468;BMP280;43311;51.196;7.518;2023-07-31T10:30:55;96294.50;;;16.09
57468;BMP280;43311;51.196;7.518;2023-07-31T10:33:21;96287.88;;;16.04
57468;BMP280;43311;51.196;7.518;2023-07-31T10:35:47;96293.03;;;16.08
57468;BMP280;43311;51.196;7.518;2023-07-31T10:38:13;96286.34;;;16.21
57468;BMP280;43311;51.196;7.518;2023-07-31T10:40:40;96292.13;;;16.11
57468;BMP280;43311;51.196;7.518;2023-07-31T10:43:05;96285.00;;;16.26
57468;BMP280;43311;51.196;7.518;2023-07-31T10:45:34;96283.53;;;16.34
57468;BMP280;43311;51.196;7.518;2023-07-31T10:48:07;96285.78;;;16.17
57468;BMP280;43311;51.196;7.518;2023-07-31T10:50:37;96289.72;;;16.22
57468;BMP280;43311;51.196;7.518;2023-07-31T10:53:03;96275.38;;;16.14
57468;BMP280;43311;51.196;7.518;2023-07-31T10:55:42;96283.75;;;16.12
57468;BMP280;43311;51.196;7.518;2023-07-31T10:58:12;96277.00;;;16.11
57468;BMP280;43311;51.196;7.518;2023-07-31T11:00:44;96278.06;;;16.05
57468;BMP280;43311;51.196;7.518;2023-07-31T11:03:13;96280.16;;;16.01
57468;BMP280;43311;51.196;7.518;2023-07-31T11:10:45;96277.84;;;16.17
57468;BMP280;43311;51.196;7.518;2023-07-31T11:13:11;96278.63;;;16.09
57468;BMP280;43311;51.196;7.518;2023-07-31T11:15:36;96284.16;;;16.20
57468;BMP280;43311;51.196;7.518;2023-07-31T11:18:02;96284.22;;;16.11
57468;BMP280;43311;51.196;7.518;2023-07-31T11:20:32;96288.47;;;16.08
57468;BMP280;43311;51.196;7.518;2023-07-31T11:23:02;96283.66;;;15.98
57468;BMP280;43311;51.196;7.518;2023-07-31T11:25:31;96276.03;;;16.00
57468;BMP280;43311;51.196;7.518;2023-07-31T11:28:01;96287.03;;;15.98
57468;BMP280;43311;51.196;7.518;2023-07-31T11:30:27;96292.63;;;16.00
57468;BMP280;43311;51.196;7.518;2023-07-31T11:32:55;96284.41;;;15.98
57468;BMP280;43311;51.196;7.518;2023-07-31T11:35:20;96280.72;;;15.96
57468;BMP280;43311;51.196;7.518;2023-07-31T11:37:45;96281.09;;;16.12
57468;BMP280;43311;51.196;7.518;2023-07-31T11:40:11;96279.59;;;16.20
57468;BMP280;43311;51.196;7.518;2023-07-31T11:42:36;96290.91;;;16.21
57468;BMP280;43311;51.196;7.518;2023-07-31T11:45:03;96269.34;;;16.13
57468;BMP280;43311;51.196;7.518;2023-07-31T11:47:29;96272.84;;;16.19
57468;BMP280;43311;51.196;7.518;2023-07-31T11:49:55;96267.22;;;16.26
57468;BMP280;43311;51.196;7.518;2023-07-31T11:52:21;96274.56;;;16.31
57468;BMP280;43311;51.196;7.518;2023-07-31T11:54:48;96264.16;;;16.28
57468;BMP280;43311;51.196;7.518;2023-07-31T11:57:14;96259.00;;;16.24
57468;BMP280;43311;51.196;7.518;2023-07-31T11:59:41;96257.53;;;16.23
57468;BMP280;43311;51.196;7.518;2023-07-31T12:02:07;96252.66;;;16.31
57468;BMP280;43311;51.196;7.518;2023-07-31T12:04:32;96251.16;;;16.39
57468;BMP280;43311;51.196;7.518;2023-07-31T12:07:00;96254.88;;;16.32
57468;BMP280;43311;51.196;7.518;2023-07-31T12:09:25;96251.47;;;16.32
57468;BMP280;43311;51.196;7.518;2023-07-31T12:11:51;96257.06;;;16.25
57468;BMP280;43311;51.196;7.518;2023-07-31T12:14:35;96247.88;;;16.20
57468;BMP280;43311;51.196;7.518;2023-07-31T12:17:04;96251.06;;;16.24
57468;BMP280;43311;51.196;7.518;2023-07-31T12:19:30;96251.06;;;16.24
57468;BMP280;43311;51.196;7.518;2023-07-31T12:21:56;96241.09;;;16.19
57468;BMP280;43311;51.196;7.518;2023-07-31T12:24:21;96253.56;;;16.28
57468;BMP280;43311;51.196;7.518;2023-07-31T12:26:48;96247.97;;;16.26
57468;BMP280;43311;51.196;7.518;2023-07-31T12:29:13;96253.16;;;16.20
57468;BMP280;43311;51.196;7.518;2023-07-31T12:31:41;96251.84;;;16.16
57468;BMP280;43311;51.196;7.518;2023-07-31T12:34:18;96239.06;;;16.14
57468;BMP280;43311;51.196;7.518;2023-07-31T12:36:45;96251.13;;;16.15
57468;BMP280;43311;51.196;7.518;2023-07-31T12:39:12;96247.88;;;16.20
57468;BMP280;43311;51.196;7.518;2023-07-31T12:41:37;96235.25;;;16.15
57468;BMP280;43311;51.196;7.518;2023-07-31T12:44:03;96235.53;;;16.17
57468;BMP280;43311;51.196;7.518;2023-07-31T12:46:29;96234.34;;;16.18
57468;BMP280;43311;51.196;7.518;2023-07-31T12:48:54;96225.63;;;16.27
57468;BMP280;43311;51.196;7.518;2023-07-31T12:51:20;96231.22;;;16.29
57468;BMP280;43311;51.196;7.518;2023-07-31T12:53:46;96231.16;;;16.38
57468;BMP280;43311;51.196;7.518;2023-07-31T12:56:11;96224.53;;;16.42
57468;BMP280;43311;51.196;7.518;2023-07-31T12:58:36;96224.34;;;16.45
57468;BMP280;43311;51.196;7.518;2023-07-31T13:01:02;96227.72;;;16.46
57468;BMP280;43311;51.196;7.518;2023-07-31T13:03:27;96228.44;;;16.46
57468;BMP280;43311;51.196;7.518;2023-07-31T13:05:53;96225.41;;;16.62
57468;BMP280;43311;51.196;7.518;2023-07-31T13:08:18;96229.59;;;16.69
57468;BMP280;43311;51.196;7.518;2023-07-31T13:10:43;96216.66;;;16.71
57468;BMP280;43311;51.196;7.518;2023-07-31T13:13:09;96222.69;;;16.86
57468;BMP280;43311;51.196;7.518;2023-07-31T13:15:35;96205.34;;;16.85
57468;BMP280;43311;51.196;7.518;2023-07-31T13:18:00;96204.69;;;16.90
57468;BMP280;43311;51.196;7.518;2023-07-31T13:20:26;96201.88;;;16.93
57468;BMP280;43311;51.196;7.518;2023-07-31T13:22:51;96196.22;;;17.00
57468;BMP280;43311;51.196;7.518;2023-07-31T13:25:16;96196.94;;;17.01
57468;BMP280;43311;51.196;7.518;2023-07-31T13:27:42;96192.94;;;17.05
57468;BMP280;43311;51.196;7.518;2023-07-31T13:30:07;96183.44;;;16.99
57468;BMP280;43311;51.196;7.518;2023-07-31T13:32:33;96188.00;;;17.12
57468;BMP280;43311;51.196;7.518;2023-07-31T13:34:58;96191.19;;;17.16
57468;BMP280;43311;51.196;7.518;2023-07-31T13:37:24;96189.63;;;17.10
57468;BMP280;43311;51.196;7.518;2023-07-31T13:39:49;96174.56;;;17.02
57468;BMP280;43311;51.196;7.518;2023-07-31T13:42:15;96184.25;;;17.05
57468;BMP280;43311;51.196;7.518;2023-07-31T13:44:41;96187.16;;;17.07
57468;BMP280;43311;51.196;7.518;2023-07-31T13:47:07;96181.78;;;17.01
57468;BMP280;43311;51.196;7.518;2023-07-31T13:49:33;96182.63;;;17.07
57468;BMP280;43311;51.196;7.518;2023-07-31T13:51:59;96186.44;;;16.92
57468;BMP280;43311;51.196;7.518;2023-07-31T13:54:25;96178.31;;;16.95
57468;BMP280;43311;51.196;7.518;2023-07-31T13:56:53;96172.66;;;16.88
57468;BMP280;43311;51.196;7.518;2023-07-31T13:59:19;96175.13;;;16.77
57468;BMP280;43311;51.196;7.518;2023-07-31T14:01:45;96166.91;;;16.89
57468;BMP280;43311;51.196;7.518;2023-07-31T14:04:11;96162.13;;;16.79
57468;BMP280;43311;51.196;7.518;2023-07-31T14:06:37;96176.31;;;16.90
57468;BMP280;43311;51.196;7.518;2023-07-31T14:09:02;96161.41;;;16.93
57468;BMP280;43311;51.196;7.518;2023-07-31T14:11:28;96165.16;;;16.86
57468;BMP280;43311;51.196;7.518;2023-07-31T14:13:55;96166.91;;;17.04
57468;BMP280;43311;51.196;7.518;2023-07-31T14:16:21;96167.44;;;17.08
57468;BMP280;43311;51.196;7.518;2023-07-31T14:18:47;96165.31;;;17.11